Time;durP1;ratioP1;P1;durP2;ratioP2;P2;SDS_P1;SDS_P2;PMS_P1;PMS_P2;Temp;Humidity;BMP_temperature;BMP_pressure;BME280_temperature;BME280_humidity;BME280_pressure;Samples;Min_cycle;Max_cycle;Signal;HPM_P1;HPM_P2
2021/08/09 00:01:43;;;;;;;1.17;0.60;;;13.50;99.90;;;;;;4984776;28;20724;-77
2021/08/09 00:04:08;;;;;;;2.00;0.70;;;13.60;99.90;;;;;;4985106;28;20387;-77
2021/08/09 00:06:34;;;;;;;1.10;0.88;;;13.50;99.90;;;;;;4986175;28;20208;-77
2021/08/09 00:09:02;;;;;;;0.80;0.80;;;13.60;99.90;;;;;;4985634;28;20192;-77
2021/08/09 00:11:28;;;;;;;0.73;0.65;;;13.60;99.90;;;;;;4985996;28;20180;-76
2021/08/09 00:13:53;;;;;;;0.82;0.80;;;13.50;99.90;;;;;;4985950;28;20191;-77
2021/08/09 00:16:19;;;;;;;1.15;0.80;;;13.60;99.90;;;;;;4985976;28;20184;-77
2021/08/09 00:18:48;;;;;;;1.30;0.73;;;13.60;99.90;;;;;;4984737;28;20185;-77
2021/08/09 00:21:16;;;;;;;0.95;0.82;;;13.60;99.90;;;;;;4984679;28;20184;-77
2021/08/09 00:23:42;;;;;;;0.70;0.70;;;13.60;99.90;;;;;;4985379;28;20184;-77
2021/08/09 00:26:08;;;;;;;1.33;0.95;;;13.60;99.90;;;;;;4985804;28;20211;-77
2021/08/09 00:28:33;;;;;;;0.82;0.80;;;13.60;99.90;;;;;;4985690;28;20287;-77
2021/08/09 00:30:59;;;;;;;1.55;0.82;;;13.60;99.90;;;;;;4985708;28;20220;-77
2021/08/09 00:33:24;;;;;;;0.70;0.70;;;13.50;99.90;;;;;;4985594;28;20200;-77
2021/08/09 00:35:50;;;;;;;3.70;1.35;;;13.50;99.90;;;;;;4985737;28;20534;-77
2021/08/09 00:38:16;;;;;;;1.10;1.00;;;13.50;99.90;;;;;;4985806;28;20199;-77
2021/08/09 00:40:41;;;;;;;0.70;0.68;;;13.50;99.90;;;;;;4985402;28;20227;-76
2021/08/09 00:43:07;;;;;;;1.20;0.80;;;13.40;99.90;;;;;;4985696;28;20188;-77
2021/08/09 00:45:33;;;;;;;0.80;0.80;;;13.40;99.90;;;;;;4985120;28;20731;-77
2021/08/09 00:47:59;;;;;;;3.33;1.10;;;13.40;99.90;;;;;;4985821;28;20238;-77
2021/08/09 00:50:24;;;;;;;0.80;0.65;;;13.40;99.90;;;;;;4985511;28;20684;-77
2021/08/09 00:52:51;;;;;;;2.38;0.68;;;13.40;99.90;;;;;;4985370;28;20177;-77
2021/08/09 00:55:17;;;;;;;0.80;0.80;;;13.30;99.90;;;;;;4984590;28;20859;-77
2021/08/09 00:57:43;;;;;;;0.85;0.68;;;13.30;99.90;;;;;;4985381;28;20882;-77
2021/08/09 01:00:09;;;;;;;1.13;0.82;;;13.30;99.90;;;;;;4983732;28;20184;-77
2021/08/09 01:02:35;;;;;;;1.25;1.00;;;13.30;99.90;;;;;;4985345;28;20196;-77
2021/08/09 01:05:03;;;;;;;1.02;0.93;;;13.30;99.90;;;;;;4984724;28;20183;-77
2021/08/09 01:07:35;;;;;;;0.80;0.80;;;13.20;99.90;;;;;;4985369;28;20583;-77
2021/08/09 01:10:20;;;;;;;1.48;0.70;;;13.20;99.90;;;;;;4984781;28;20211;-77
2021/08/09 01:13:00;;;;;;;1.95;0.85;;;13.30;99.90;;;;;;4985151;28;20538;-77
2021/08/09 01:15:31;;;;;;;1.73;1.00;;;13.30;99.90;;;;;;4984683;28;20216;-77
2021/08/09 01:18:01;;;;;;;0.85;0.65;;;13.40;99.90;;;;;;4985265;28;20207;-77
2021/08/09 01:20:50;;;;;;;1.50;0.75;;;13.50;99.90;;;;;;4984693;28;20180;-77
2021/08/09 01:23:27;;;;;;;0.98;0.88;;;13.60;99.90;;;;;;4984625;28;20184;-77
2021/08/09 01:25:58;;;;;;;2.10;0.73;;;13.60;99.90;;;;;;4984141;28;20180;-77
2021/08/09 01:28:32;;;;;;;1.20;1.10;;;13.70;99.90;;;;;;4984035;28;20215;-77
2021/08/09 01:30:59;;;;;;;1.95;0.90;;;13.90;99.90;;;;;;4984628;28;20523;-77
2021/08/09 01:33:27;;;;;;;0.80;0.75;;;14.00;99.90;;;;;;4984407;28;20188;-77
2021/08/09 01:35:54;;;;;;;0.70;0.70;;;14.10;99.90;;;;;;4982774;28;20177;-77
2021/08/09 01:38:23;;;;;;;1.63;0.90;;;14.20;99.90;;;;;;4984368;28;20577;-77
2021/08/09 01:40:49;;;;;;;1.08;0.90;;;14.20;99.90;;;;;;4984495;28;20181;-77
2021/08/09 01:43:16;;;;;;;1.45;0.70;;;14.30;99.90;;;;;;4984273;28;20184;-77
2021/08/09 01:45:42;;;;;;;0.80;0.80;;;14.30;99.90;;;;;;4983347;28;20188;-77
2021/08/09 01:48:09;;;;;;;0.52;0.52;;;14.30;99.90;;;;;;4984402;28;20207;-77
2021/08/09 01:50:35;;;;;;;1.30;0.88;;;14.30;99.90;;;;;;4982899;28;20212;-77
2021/08/09 01:53:02;;;;;;;0.60;0.60;;;14.30;99.90;;;;;;4984403;28;20200;-77
2021/08/09 01:55:28;;;;;;;0.75;0.70;;;14.30;99.90;;;;;;4984710;28;20180;-77
2021/08/09 01:57:54;;;;;;;0.60;0.60;;;14.40;99.90;;;;;;4982702;28;20549;-77
2021/08/09 02:00:20;;;;;;;1.83;1.38;;;14.30;99.90;;;;;;4984103;28;20596;-77
2021/08/09 02:02:46;;;;;;;0.70;0.60;;;14.30;99.90;;;;;;4982933;28;20195;-77
2021/08/09 02:05:14;;;;;;;1.00;0.90;;;14.30;99.90;;;;;;4983696;28;20275;-77
2021/08/09 02:07:43;;;;;;;0.60;0.60;;;14.30;99.90;;;;;;4984218;28;20667;-77
2021/08/09 02:10:13;;;;;;;1.85;0.73;;;14.30;99.90;;;;;;4983627;28;20215;-77
2021/08/09 02:13:05;;;;;;;0.85;0.73;;;14.20;99.90;;;;;;4984277;28;20180;-77
2021/08/09 02:15:56;;;;;;;0.73;0.63;;;14.10;99.90;;;;;;4983746;28;20678;-77
2021/08/09 02:18:40;;;;;;;0.98;0.88;;;14.00;99.90;;;;;;4982107;28;20682;-77
2021/08/09 02:21:11;;;;;;;0.70;0.70;;;13.90;99.90;;;;;;4984380;28;20176;-77
2021/08/09 02:23:53;;;;;;;1.02;0.82;;;13.90;99.90;;;;;;4982603;28;20184;-77
2021/08/09 02:26:33;;;;;;;2.38;1.13;;;13.80;99.90;;;;;;4983363;28;20179;-77
2021/08/09 02:29:10;;;;;;;1.10;0.85;;;13.80;99.90;;;;;;4998099;28;20298;-77
2021/08/09 02:31:37;;;;;;;0.77;0.70;;;13.80;99.90;;;;;;4983899;28;20183;-77
2021/08/09 02:34:05;;;;;;;0.93;0.60;;;13.70;99.90;;;;;;4983073;28;20188;-78
2021/08/09 02:36:32;;;;;;;0.55;0.55;;;13.60;99.90;;;;;;4984338;28;20192;-77
2021/08/09 02:38:59;;;;;;;2.67;1.00;;;13.70;99.90;;;;;;4985395;28;20607;-75
2021/08/09 02:41:26;;;;;;;0.73;0.73;;;13.60;99.90;;;;;;4984323;28;20186;-77
2021/08/09 02:43:52;;;;;;;3.67;1.25;;;13.50;99.90;;;;;;4983450;28;20188;-77
2021/08/09 02:46:19;;;;;;;0.95;0.82;;;13.40;99.90;;;;;;4983326;28;20239;-77
2021/08/09 02:48:47;;;;;;;1.90;0.80;;;13.30;99.90;;;;;;4982157;28;20192;-77
2021/08/09 02:51:15;;;;;;;0.77;0.73;;;13.20;99.90;;;;;;4982025;28;20584;-77
2021/08/09 02:53:41;;;;;;;1.30;0.90;;;13.10;99.90;;;;;;4983170;28;20187;-77
2021/08/09 02:56:07;;;;;;;1.38;1.10;;;13.20;99.90;;;;;;4983374;28;20565;-77
2021/08/09 02:58:33;;;;;;;1.55;1.20;;;13.20;99.90;;;;;;4985507;28;20916;-77
2021/08/09 03:00:59;;;;;;;1.67;0.85;;;13.30;99.90;;;;;;4987429;28;20258;-76
2021/08/09 03:03:28;;;;;;;0.80;0.73;;;13.20;99.90;;;;;;4987390;28;20180;-77
2021/08/09 03:05:57;;;;;;;1.23;0.90;;;13.30;99.90;;;;;;4986931;28;20186;-77
2021/08/09 03:08:25;;;;;;;0.70;0.70;;;13.30;99.90;;;;;;4985553;28;20200;-77
2021/08/09 03:10:51;;;;;;;0.70;0.68;;;13.40;99.90;;;;;;4987123;28;20737;-77
2021/08/09 03:13:24;;;;;;;1.85;0.98;;;13.50;99.90;;;;;;4987288;28;20235;-77
2021/08/09 03:15:51;;;;;;;2.20;0.80;;;13.50;99.90;;;;;;4986716;28;20268;-77
2021/08/09 03:18:17;;;;;;;0.85;0.77;;;13.60;99.90;;;;;;4985520;28;20204;-77
2021/08/09 03:20:43;;;;;;;1.27;0.90;;;13.60;99.90;;;;;;4986649;28;20188;-77
2021/08/09 03:23:09;;;;;;;1.30;0.90;;;13.60;99.90;;;;;;4986685;28;20535;-76
2021/08/09 03:25:36;;;;;;;0.93;0.90;;;13.50;99.90;;;;;;4986809;28;20196;-76
2021/08/09 03:28:02;;;;;;;1.90;0.75;;;13.50;99.90;;;;;;4987198;28;20251;-76
2021/08/09 03:30:28;;;;;;;1.17;0.80;;;13.40;99.90;;;;;;4987210;28;20200;-76
2021/08/09 03:32:54;;;;;;;0.95;0.60;;;13.40;99.90;;;;;;4986818;28;20203;-77
2021/08/09 03:35:21;;;;;;;1.58;0.70;;;13.40;99.90;;;;;;4986472;28;20192;-77
2021/08/09 03:37:46;;;;;;;0.68;0.68;;;13.30;99.90;;;;;;4986912;28;20294;-77
2021/08/09 03:40:12;;;;;;;2.03;0.75;;;13.30;99.90;;;;;;4986413;28;20212;-77
2021/08/09 03:42:38;;;;;;;1.08;0.75;;;13.30;99.90;;;;;;4986850;28;20545;-77
2021/08/09 03:45:05;;;;;;;1.33;1.08;;;13.30;99.90;;;;;;4984771;28;20195;-77
2021/08/09 03:47:30;;;;;;;0.70;0.70;;;13.30;99.90;;;;;;4987084;28;20502;-77
2021/08/09 03:49:56;;;;;;;1.13;0.80;;;13.20;99.90;;;;;;4986401;28;20206;-77
2021/08/09 03:52:21;;;;;;;2.50;1.10;;;13.20;99.90;;;;;;4987269;28;20280;-77
2021/08/09 03:54:47;;;;;;;1.13;1.02;;;13.20;99.90;;;;;;4986268;28;20963;-77
2021/08/09 03:57:13;;;;;;;1.30;1.20;;;13.20;99.90;;;;;;4985310;28;21363;-77
2021/08/09 03:59:38;;;;;;;2.05;0.80;;;13.20;99.90;;;;;;4986497;28;20180;-77
2021/08/09 04:02:04;;;;;;;1.13;0.70;;;13.20;99.90;;;;;;4986533;28;20279;-77
2021/08/09 04:04:29;;;;;;;1.08;0.90;;;13.20;99.90;;;;;;4986206;28;20180;-77
2021/08/09 04:06:55;;;;;;;1.83;0.63;;;13.20;99.90;;;;;;4986632;28;20499;-77
2021/08/09 04:09:21;;;;;;;1.30;0.90;;;13.30;99.90;;;;;;4985819;28;20624;-77
2021/08/09 04:11:46;;;;;;;0.95;0.77;;;13.30;99.90;;;;;;4986325;28;20231;-77
2021/08/09 04:14:12;;;;;;;1.85;0.82;;;13.40;99.90;;;;;;4984671;28;20184;-77
2021/08/09 04:16:37;;;;;;;1.88;1.20;;;13.40;99.90;;;;;;4986203;28;20207;-77
2021/08/09 04:19:03;;;;;;;1.20;1.00;;;13.60;99.90;;;;;;4986141;28;20642;-77
2021/08/09 04:21:29;;;;;;;1.02;0.90;;;13.60;99.90;;;;;;4986293;28;20184;-77
2021/08/09 04:23:54;;;;;;;1.23;0.75;;;13.70;99.90;;;;;;4986111;28;20180;-77
2021/08/09 04:26:20;;;;;;;1.13;0.70;;;13.90;99.90;;;;;;4984833;28;20181;-77
2021/08/09 04:28:46;;;;;;;0.70;0.70;;;13.90;99.90;;;;;;4984835;28;20632;-77
2021/08/09 04:31:12;;;;;;;2.40;0.80;;;14.00;99.90;;;;;;4986123;28;20315;-77
2021/08/09 04:33:45;;;;;;;2.05;1.10;;;14.10;99.90;;;;;;4986039;28;20180;-77
2021/08/09 04:36:11;;;;;;;0.88;0.88;;;14.20;99.90;;;;;;4984193;28;20686;-77
2021/08/09 04:38:37;;;;;;;0.60;0.60;;;14.20;99.90;;;;;;4984848;28;20189;-77
2021/08/09 04:41:07;;;;;;;1.58;1.15;;;14.20;99.90;;;;;;4985032;28;20630;-77
2021/08/09 04:43:38;;;;;;;0.70;0.70;;;14.30;99.90;;;;;;4984659;28;20199;-77
2021/08/09 04:46:04;;;;;;;1.35;0.68;;;14.30;99.90;;;;;;4985844;28;20187;-77
2021/08/09 04:48:30;;;;;;;2.15;0.90;;;14.40;99.90;;;;;;4986441;28;20204;-77
2021/08/09 04:50:56;;;;;;;0.65;0.65;;;14.50;99.90;;;;;;4986290;28;20217;-77
2021/08/09 04:53:22;;;;;;;1.95;0.95;;;14.60;99.90;;;;;;4985560;28;20176;-77
2021/08/09 04:55:47;;;;;;;1.20;0.85;;;14.60;99.90;;;;;;4986673;28;20186;-77
2021/08/09 04:58:13;;;;;;;0.65;0.45;;;14.70;99.90;;;;;;4986512;28;20327;-77
2021/08/09 05:00:38;;;;;;;1.00;0.90;;;14.80;99.90;;;;;;4984795;28;20180;-77
2021/08/09 05:03:04;;;;;;;1.33;0.73;;;14.80;99.90;;;;;;4986152;28;20272;-77
2021/08/09 05:05:30;;;;;;;0.50;0.50;;;14.90;99.90;;;;;;4986062;28;20191;-77
2021/08/09 05:07:56;;;;;;;3.55;0.80;;;15.00;99.90;;;;;;4985661;28;20208;-77
2021/08/09 05:10:22;;;;;;;0.90;0.85;;;15.20;99.90;;;;;;4986100;28;20372;-77
2021/08/09 05:12:48;;;;;;;0.70;0.70;;;15.40;99.90;;;;;;4986817;28;20192;-77
2021/08/09 05:15:14;;;;;;;0.95;0.75;;;15.50;99.90;;;;;;4985788;28;20187;-77
2021/08/09 05:17:39;;;;;;;5.65;0.55;;;15.30;99.90;;;;;;4986385;28;20207;-77
2021/08/09 05:20:06;;;;;;;0.73;0.73;;;15.30;99.90;;;;;;4984906;28;20202;-77
2021/08/09 05:22:33;;;;;;;1.83;0.90;;;15.40;99.90;;;;;;4986404;28;20250;-76
2021/08/09 05:24:59;;;;;;;1.10;0.90;;;15.40;99.90;;;;;;4985405;28;20194;-77
2021/08/09 05:27:25;;;;;;;2.67;0.95;;;15.50;99.90;;;;;;4985968;28;21136;-77
2021/08/09 05:29:50;;;;;;;1.45;0.80;;;15.50;99.90;;;;;;4985554;28;20232;-77
2021/08/09 05:32:16;;;;;;;1.00;0.70;;;15.80;99.90;;;;;;4985649;28;20173;-77
2021/08/09 05:34:46;;;;;;;1.75;0.63;;;16.00;99.90;;;;;;4985487;28;20242;-77
2021/08/09 05:37:15;;;;;;;0.75;0.75;;;16.30;99.90;;;;;;4986041;28;20283;-77
2021/08/09 05:39:40;;;;;;;0.93;0.85;;;16.60;99.90;;;;;;4986786;28;20246;-77
2021/08/09 05:42:07;;;;;;;0.98;0.80;;;16.90;99.90;;;;;;4986345;28;20207;-77
2021/08/09 05:44:32;;;;;;;1.27;0.70;;;17.10;99.90;;;;;;4986415;28;20192;-77
2021/08/09 05:46:58;;;;;;;0.73;0.73;;;17.20;99.90;;;;;;4984618;28;20203;-77
2021/08/09 05:49:23;;;;;;;0.90;0.60;;;17.30;99.90;;;;;;4987299;28;20188;-77
2021/08/09 05:51:49;;;;;;;1.58;0.93;;;17.30;99.90;;;;;;4986201;28;20268;-77
2021/08/09 05:54:14;;;;;;;0.50;0.50;;;17.40;99.90;;;;;;4984460;28;20188;-77
2021/08/09 05:56:40;;;;;;;1.35;0.60;;;17.60;99.90;;;;;;4983727;28;20258;-77
2021/08/09 05:59:05;;;;;;;1.50;1.17;;;17.80;99.90;;;;;;4986779;28;20187;-77
2021/08/09 06:01:31;;;;;;;0.85;0.63;;;17.90;99.90;;;;;;4986558;28;20319;-78
2021/08/09 06:03:57;;;;;;;1.95;0.85;;;18.10;99.90;;;;;;4986532;28;20188;-77
2021/08/09 06:06:23;;;;;;;0.65;0.55;;;18.20;99.90;;;;;;4984350;28;20204;-77
2021/08/09 06:08:49;;;;;;;2.05;0.80;;;18.50;99.90;;;;;;4985020;28;20275;-78
2021/08/09 06:11:15;;;;;;;0.45;0.40;;;18.70;99.90;;;;;;4985961;28;20204;-77
2021/08/09 06:13:40;;;;;;;0.65;0.65;;;18.90;99.90;;;;;;4986436;28;20230;-78
2021/08/09 06:16:06;;;;;;;0.68;0.60;;;18.90;99.90;;;;;;4986235;28;20184;-77
2021/08/09 06:18:33;;;;;;;0.60;0.50;;;19.10;99.90;;;;;;4985030;28;20187;-77
2021/08/09 06:20:59;;;;;;;2.38;0.57;;;19.50;99.90;;;;;;4986063;28;20432;-77
2021/08/09 06:23:25;;;;;;;1.10;0.47;;;20.20;99.90;;;;;;4986466;28;20187;-78
2021/08/09 06:25:50;;;;;;;0.90;0.50;;;20.40;99.90;;;;;;4985413;28;20199;-77
2021/08/09 06:28:16;;;;;;;0.95;0.55;;;20.70;99.90;;;;;;4985834;28;20219;-76
2021/08/09 06:30:42;;;;;;;0.82;0.65;;;20.50;99.90;;;;;;4984976;28;20845;-78
2021/08/09 06:33:07;;;;;;;0.85;0.55;;;20.30;99.90;;;;;;4986022;28;20203;-77
2021/08/09 06:35:33;;;;;;;0.60;0.50;;;20.40;99.90;;;;;;4983947;28;20245;-77
2021/08/09 06:37:58;;;;;;;0.90;0.60;;;20.30;99.90;;;;;;4983739;28;20646;-77
2021/08/09 06:40:24;;;;;;;0.60;0.60;;;20.10;99.90;;;;;;4985639;28;20263;-77
2021/08/09 06:42:49;;;;;;;0.60;0.52;;;20.10;99.90;;;;;;4986472;28;20184;-77
2021/08/09 06:45:15;;;;;;;2.20;0.55;;;20.10;99.90;;;;;;4985124;28;20309;-77
2021/08/09 06:47:40;;;;;;;1.42;0.88;;;20.30;99.90;;;;;;4987111;28;20717;-77
2021/08/09 06:50:07;;;;;;;1.83;0.80;;;20.40;99.90;;;;;;4984537;28;20650;-77
2021/08/09 06:52:33;;;;;;;1.00;0.70;;;20.50;99.90;;;;;;4986222;28;20218;-77
2021/08/09 06:54:59;;;;;;;0.70;0.60;;;20.60;99.90;;;;;;4985529;28;20557;-77
2021/08/09 06:57:24;;;;;;;1.27;0.80;;;20.70;99.90;;;;;;4985588;28;21026;-77
2021/08/09 06:59:50;;;;;;;0.50;0.50;;;20.60;99.90;;;;;;4985539;28;20183;-76
2021/08/09 07:02:16;;;;;;;3.72;0.50;;;20.60;99.90;;;;;;4985890;28;20180;-77
2021/08/09 07:04:41;;;;;;;0.60;0.40;;;20.70;99.90;;;;;;4985555;28;20195;-77
2021/08/09 07:07:07;;;;;;;1.65;0.55;;;20.90;99.90;;;;;;4985535;28;20204;-77
2021/08/09 07:09:32;;;;;;;3.40;0.70;;;20.70;99.90;;;;;;4983952;28;20270;-77
2021/08/09 07:11:58;;;;;;;0.80;0.50;;;21.00;99.90;;;;;;4984181;28;20185;-77
2021/08/09 07:14:23;;;;;;;1.42;0.55;;;21.00;99.90;;;;;;4985417;28;20638;-77
2021/08/09 07:16:52;;;;;;;0.90;0.57;;;21.20;99.90;;;;;;4985317;28;20287;-77
2021/08/09 07:19:18;;;;;;;1.20;0.70;;;21.30;99.90;;;;;;4984069;28;20312;-77
2021/08/09 07:21:44;;;;;;;0.70;0.60;;;21.20;99.90;;;;;;4984446;28;20177;-77
2021/08/09 07:24:09;;;;;;;0.60;0.60;;;21.00;99.90;;;;;;4985338;28;20176;-83
2021/08/09 07:26:35;;;;;;;1.17;0.50;;;20.90;99.90;;;;;;4989270;28;20702;-82
2021/08/09 07:29:00;;;;;;;0.88;0.60;;;20.80;99.90;;;;;;4988389;28;20196;-81
2021/08/09 07:31:26;;;;;;;1.00;0.60;;;20.80;99.90;;;;;;4987090;28;20212;-77
2021/08/09 07:33:52;;;;;;;1.25;0.60;;;20.60;99.90;;;;;;4985515;28;20176;-76
2021/08/09 07:36:17;;;;;;;0.63;0.52;;;20.40;99.90;;;;;;4985012;28;20639;-77
2021/08/09 07:38:43;;;;;;;0.50;0.50;;;20.10;99.90;;;;;;4984745;28;20191;-77
2021/08/09 07:41:09;;;;;;;0.63;0.50;;;20.20;99.90;;;;;;4984888;28;20208;-77
2021/08/09 07:43:35;;;;;;;0.47;0.43;;;20.30;99.90;;;;;;4986839;28;20474;-77
2021/08/09 07:46:00;;;;;;;4.43;1.23;;;20.50;99.90;;;;;;4988121;28;20542;-77
2021/08/09 07:48:26;;;;;;;0.93;0.70;;;20.60;99.90;;;;;;4988067;28;20208;-76
2021/08/09 07:50:52;;;;;;;2.33;0.80;;;20.50;99.90;;;;;;4988539;28;20354;-77
2021/08/09 07:53:17;;;;;;;1.38;0.63;;;20.70;99.90;;;;;;4988781;28;20176;-77
2021/08/09 07:55:43;;;;;;;1.33;0.60;;;21.00;99.90;;;;;;4988098;28;20184;-77
2021/08/09 07:58:09;;;;;;;1.38;0.50;;;20.90;99.90;;;;;;4989482;28;20311;-78
2021/08/09 08:00:34;;;;;;;0.50;0.50;;;21.10;99.90;;;;;;4987541;28;20642;-77
2021/08/09 08:03:01;;;;;;;0.90;0.50;;;21.20;99.90;;;;;;4989496;28;20243;-76
2021/08/09 08:05:26;;;;;;;0.65;0.63;;;21.40;99.90;;;;;;4987004;28;20603;-77
2021/08/09 08:07:52;;;;;;;2.53;0.93;;;21.40;99.90;;;;;;4989110;28;20239;-76
2021/08/09 08:10:17;;;;;;;1.05;0.55;;;21.40;99.90;;;;;;4987483;28;20201;-77
2021/08/09 08:12:43;;;;;;;1.27;0.60;;;21.70;99.90;;;;;;4989249;28;20184;-77
2021/08/09 08:15:09;;;;;;;1.13;0.55;;;21.80;99.90;;;;;;4988824;28;20172;-78
2021/08/09 08:17:35;;;;;;;1.70;0.63;;;21.80;99.90;;;;;;4988351;28;20566;-77
2021/08/09 08:20:00;;;;;;;0.98;0.88;;;21.60;99.90;;;;;;4988514;28;20188;-77
2021/08/09 08:22:26;;;;;;;1.08;0.77;;;21.60;99.90;;;;;;4987714;28;20290;-76
2021/08/09 08:24:52;;;;;;;1.45;0.47;;;21.90;99.90;;;;;;4988654;28;20184;-77
2021/08/09 08:27:17;;;;;;;1.75;0.85;;;22.20;99.90;;;;;;4988556;28;20662;-77
2021/08/09 08:29:43;;;;;;;0.90;0.60;;;22.50;99.90;;;;;;4988857;28;20215;-77
2021/08/09 08:32:08;;;;;;;0.90;0.70;;;22.70;99.90;;;;;;4989333;28;20204;-77
2021/08/09 08:34:34;;;;;;;0.93;0.73;;;22.70;99.90;;;;;;4988567;28;20617;-77
2021/08/09 08:37:00;;;;;;;0.82;0.80;;;22.60;99.90;;;;;;4989031;28;20577;-78
2021/08/09 08:39:26;;;;;;;1.65;1.10;;;22.80;99.90;;;;;;4986914;28;20432;-76
2021/08/09 08:41:53;;;;;;;1.20;0.60;;;22.80;99.90;;;;;;4988255;28;20235;-77
2021/08/09 08:44:19;;;;;;;1.27;0.57;;;22.80;99.90;;;;;;4987282;28;20188;-77
2021/08/09 08:46:46;;;;;;;1.08;0.73;;;22.90;99.90;;;;;;4986371;28;20204;-78
2021/08/09 08:49:19;;;;;;;1.48;0.63;;;23.00;99.90;;;;;;4988613;28;20667;-77
2021/08/09 08:52:04;;;;;;;1.10;0.60;;;23.10;99.90;;;;;;4988786;28;20464;-73
2021/08/09 08:54:30;;;;;;;0.40;0.40;;;23.30;99.90;;;;;;4986738;28;20303;-76
2021/08/09 08:56:56;;;;;;;2.20;0.60;;;23.20;99.90;;;;;;4988152;28;20509;-76
2021/08/09 08:59:21;;;;;;;1.10;0.70;;;23.20;99.90;;;;;;4988497;28;20856;-76
2021/08/09 09:01:49;;;;;;;2.42;1.05;;;23.10;99.90;;;;;;4988196;28;20181;-77
2021/08/09 09:04:18;;;;;;;4.50;1.20;;;23.00;99.90;;;;;;4985982;28;20180;-76
2021/08/09 09:06:44;;;;;;;0.70;0.63;;;22.80;99.90;;;;;;4986548;28;20295;-77
2021/08/09 09:09:23;;;;;;;0.50;0.50;;;22.90;99.90;;;;;;4987996;28;20288;-77
2021/08/09 09:11:49;;;;;;;7.55;1.05;;;23.20;99.90;;;;;;4986015;28;20246;-76
2021/08/09 09:14:32;;;;;;;3.80;0.73;;;23.20;99.90;;;;;;4988064;28;20223;-76
2021/08/09 09:16:59;;;;;;;1.20;0.60;;;23.10;99.90;;;;;;4986686;28;20204;-76
2021/08/09 09:19:36;;;;;;;1.13;0.70;;;23.40;99.90;;;;;;4986857;28;20210;-76
2021/08/09 09:22:06;;;;;;;4.78;1.15;;;23.40;99.90;;;;;;4986827;28;20219;-77
2021/08/09 09:24:33;;;;;;;3.03;0.98;;;23.50;99.90;;;;;;4986718;28;20266;-77
2021/08/09 09:27:09;;;;;;;3.03;0.63;;;23.50;99.90;;;;;;4986299;28;20208;-77
2021/08/09 09:29:41;;;;;;;3.03;0.80;;;23.70;99.90;;;;;;4985324;28;20214;-77
2021/08/09 09:32:20;;;;;;;1.00;0.68;;;23.40;99.90;;;;;;4985995;28;20727;-77
2021/08/09 09:34:49;;;;;;;0.73;0.60;;;23.40;99.90;;;;;;4986712;28;20184;-77
2021/08/09 09:37:49;;;;;;;1.08;0.55;;;23.70;99.90;;;;;;4985903;28;20612;-77
2021/08/09 09:40:20;;;;;;;1.90;0.77;;;23.90;99.90;;;;;;4985044;28;20330;-82
2021/08/09 09:42:46;;;;;;;0.75;0.50;;;24.00;99.90;;;;;;4985687;28;20585;-78
2021/08/09 09:45:22;;;;;;;0.98;0.57;;;23.90;99.90;;;;;;4986463;28;20347;-77
2021/08/09 09:48:05;;;;;;;2.33;1.35;;;23.90;99.90;;;;;;4986237;28;20309;-78
2021/08/09 09:50:33;;;;;;;3.28;1.20;;;23.70;99.90;;;;;;4984808;28;20328;-77
2021/08/09 09:53:20;;;;;;;1.05;0.43;;;23.60;99.90;;;;;;4986412;28;20184;-77
2021/08/09 09:55:48;;;;;;;0.60;0.60;;;23.70;99.90;;;;;;4985132;28;20191;-78
2021/08/09 09:58:15;;;;;;;0.70;0.68;;;23.50;99.90;;;;;;4986301;28;20202;-77
2021/08/09 10:00:42;;;;;;;0.95;0.57;;;23.60;99.90;;;;;;4985893;28;20888;-77
2021/08/09 10:03:09;;;;;;;0.80;0.55;;;23.40;99.90;;;;;;4984811;28;20192;-77
2021/08/09 10:05:39;;;;;;;0.63;0.60;;;23.40;99.90;;;;;;4984284;28;20184;-77
2021/08/09 10:08:27;;;;;;;1.10;0.65;;;23.30;99.90;;;;;;4986047;28;20752;-77
2021/08/09 10:10:55;;;;;;;1.02;0.55;;;23.30;99.90;;;;;;4984743;28;20220;-77
2021/08/09 10:13:23;;;;;;;4.22;1.35;;;23.10;99.90;;;;;;4985298;28;20180;-77
2021/08/09 10:15:53;;;;;;;1.30;0.80;;;22.60;99.90;;;;;;4984913;28;20180;-77
2021/08/09 10:18:31;;;;;;;0.65;0.65;;;22.70;99.90;;;;;;4985047;28;20684;-77
2021/08/09 10:20:59;;;;;;;1.20;0.77;;;22.60;99.90;;;;;;4985503;28;20179;-77
2021/08/09 10:23:40;;;;;;;1.25;0.50;;;22.60;99.90;;;;;;4985662;28;20241;-77
2021/08/09 10:26:27;;;;;;;0.70;0.50;;;22.50;99.90;;;;;;4984120;28;20192;-77
2021/08/09 10:28:52;;;;;;;0.60;0.50;;;22.50;99.90;;;;;;4985701;28;20211;-78
2021/08/09 10:31:25;;;;;;;0.73;0.73;;;22.50;99.90;;;;;;4985394;28;20208;-77
2021/08/09 10:33:51;;;;;;;1.35;0.50;;;22.20;99.90;;;;;;4984741;28;20750;-77
2021/08/09 10:36:21;;;;;;;0.80;0.60;;;22.00;99.90;;;;;;4984911;28;20569;-77
2021/08/09 10:38:49;;;;;;;0.60;0.60;;;22.00;99.90;;;;;;4986385;28;20188;-77
2021/08/09 10:41:15;;;;;;;0.40;0.40;;;22.00;99.90;;;;;;4985652;28;20326;-77
2021/08/09 10:44:05;;;;;;;3.40;0.73;;;21.90;99.90;;;;;;4985370;28;20294;-77
2021/08/09 10:46:35;;;;;;;5.30;0.65;;;22.20;99.90;;;;;;4985937;28;20204;-77
2021/08/09 10:49:00;;;;;;;1.42;0.60;;;22.40;99.90;;;;;;4984675;28;20184;-77
2021/08/09 10:51:51;;;;;;;1.55;0.60;;;22.50;99.90;;;;;;4985299;28;20410;-77
2021/08/09 10:54:27;;;;;;;1.42;0.75;;;22.60;99.90;;;;;;4985419;28;20184;-77
2021/08/09 10:56:55;;;;;;;0.85;0.50;;;22.60;99.90;;;;;;4983282;28;20455;-77
2021/08/09 10:59:46;;;;;;;0.57;0.50;;;22.80;99.90;;;;;;4986980;28;20184;-77
2021/08/09 11:02:18;;;;;;;2.17;0.70;;;22.80;99.90;;;;;;4990305;28;20184;-77
2021/08/09 11:04:44;;;;;;;1.70;0.68;;;22.90;99.90;;;;;;4995220;28;20228;-78
2021/08/09 11:07:17;;;;;;;3.13;0.60;;;23.10;99.90;;;;;;4994166;28;20212;-77
2021/08/09 11:09:47;;;;;;;1.42;0.93;;;23.20;99.90;;;;;;4994767;28;20838;-77
2021/08/09 11:12:20;;;;;;;1.00;0.50;;;23.30;99.90;;;;;;4989591;28;20181;-78
2021/08/09 11:15:05;;;;;;;0.70;0.50;;;23.40;99.90;;;;;;4990310;28;20729;-77
2021/08/09 11:17:42;;;;;;;0.85;0.60;;;23.50;99.90;;;;;;4990494;28;20203;-77
2021/08/09 11:20:12;;;;;;;1.65;0.88;;;23.60;99.90;;;;;;4994618;28;20188;-77
2021/08/09 11:22:39;;;;;;;0.50;0.43;;;23.60;99.90;;;;;;4994862;28;20184;-77
2021/08/09 11:25:23;;;;;;;0.47;0.43;;;23.60;99.90;;;;;;4991752;28;20194;-76
2021/08/09 11:28:00;;;;;;;0.73;0.40;;;23.60;99.90;;;;;;4988464;28;20220;-77
2021/08/09 11:30:52;;;;;;;0.60;0.50;;;23.70;99.90;;;;;;4987911;28;20212;-77
2021/08/09 11:33:19;;;;;;;0.40;0.40;;;23.70;99.90;;;;;;4985162;28;20279;-77
2021/08/09 11:35:46;;;;;;;1.95;0.57;;;24.00;99.90;;;;;;4987755;28;20195;-77
2021/08/09 11:38:12;;;;;;;0.88;0.60;;;24.20;99.90;;;;;;4986262;28;20262;-77
2021/08/09 11:40:39;;;;;;;0.85;0.40;;;24.60;99.90;;;;;;4987430;28;20188;-77
2021/08/09 11:43:07;;;;;;;0.68;0.30;;;25.10;99.90;;;;;;4987613;28;20230;-77
2021/08/09 11:45:33;;;;;;;1.13;0.40;;;24.80;99.90;;;;;;4986860;28;20226;-77
2021/08/09 11:47:58;;;;;;;0.93;0.50;;;24.60;99.90;;;;;;4986088;28;20702;-77
2021/08/09 11:50:24;;;;;;;0.90;0.35;;;24.60;99.90;;;;;;4986993;28;20208;-77
2021/08/09 11:52:51;;;;;;;1.17;0.73;;;24.50;99.90;;;;;;4987520;28;20242;-77
2021/08/09 11:55:21;;;;;;;1.05;0.50;;;24.50;99.90;;;;;;4985761;28;20651;-77
2021/08/09 11:57:47;;;;;;;1.00;0.80;;;24.40;99.90;;;;;;4987763;28;20258;-77
2021/08/09 12:00:13;;;;;;;0.93;0.43;;;24.50;99.90;;;;;;4987459;28;20180;-76
2021/08/09 12:03:11;;;;;;;0.82;0.73;;;24.20;99.90;;;;;;4985366;28;20284;-77
2021/08/09 12:05:37;;;;;;;1.38;0.93;;;23.90;99.90;;;;;;4986638;28;20207;-77
2021/08/09 12:08:07;;;;;;;1.45;0.47;;;23.70;99.90;;;;;;4985549;28;20275;-77
2021/08/09 12:10:34;;;;;;;0.90;0.57;;;23.80;99.90;;;;;;4986495;28;20208;-76
2021/08/09 12:13:04;;;;;;;2.25;0.70;;;24.20;99.90;;;;;;4986334;28;20315;-77
2021/08/09 12:15:31;;;;;;;1.02;0.43;;;24.60;99.90;;;;;;4986066;28;20177;-76
2021/08/09 12:18:07;;;;;;;0.70;0.50;;;24.80;99.90;;;;;;4987371;28;20295;-76
2021/08/09 12:20:35;;;;;;;0.52;0.40;;;25.10;99.90;;;;;;4986438;28;20234;-76
2021/08/09 12:23:01;;;;;;;0.88;0.60;;;25.10;99.90;;;;;;4986476;28;20628;-77
2021/08/09 12:25:38;;;;;;;0.75;0.60;;;25.20;99.90;;;;;;4987576;28;20184;-77
2021/08/09 12:28:06;;;;;;;0.40;0.40;;;25.10;99.90;;;;;;4984650;28;20242;-76
2021/08/09 12:30:52;;;;;;;2.50;0.50;;;25.20;99.90;;;;;;4985694;28;20632;-77
2021/08/09 12:33:19;;;;;;;0.40;0.40;;;25.00;99.90;;;;;;4984318;28;20176;-77
2021/08/09 12:35:45;;;;;;;1.35;0.70;;;24.90;99.90;;;;;;4985629;28;20188;-77
2021/08/09 12:38:12;;;;;;;1.83;0.40;;;24.80;99.90;;;;;;4984038;28;20627;-77
2021/08/09 12:40:40;;;;;;;0.85;0.47;;;24.70;99.90;;;;;;4985783;28;20189;-77
2021/08/09 12:43:10;;;;;;;1.00;0.60;;;24.60;99.90;;;;;;4985647;28;20196;-77
2021/08/09 12:45:37;;;;;;;1.85;0.65;;;24.60;99.90;;;;;;4985411;28;20180;-77
2021/08/09 12:48:07;;;;;;;0.40;0.40;;;24.50;99.90;;;;;;4985468;28;20196;-77
2021/08/09 12:50:34;;;;;;;0.55;0.55;;;24.40;99.90;;;;;;4984315;28;20662;-77
2021/08/09 12:53:00;;;;;;;2.20;0.50;;;24.30;99.90;;;;;;4985358;28;20250;-77
2021/08/09 12:55:25;;;;;;;0.50;0.50;;;24.50;99.90;;;;;;4985982;28;20216;-77